sensor_id;sensor_type;location;lat;lon;timestamp;pressure;altitude;pressure_sealevel;temperature;humidity
13050;BME280;6591;51.446;5.404;2023-03-18T00:01:03;100455.72;;;19.74;38.68
13050;BME280;6591;51.446;5.404;2023-03-18T00:03:33;100453.31;;;19.71;38.91
13050;BME280;6591;51.446;5.404;2023-03-18T00:06:14;100454.44;;;19.68;38.91
13050;BME280;6591;51.446;5.404;2023-03-18T00:08:44;100453.88;;;19.65;39.08
13050;BME280;6591;51.446;5.404;2023-03-18T00:11:16;100460.41;;;19.62;39.21
13050;BME280;6591;51.446;5.404;2023-03-18T00:13:44;100447.31;;;19.58;38.93
13050;BME280;6591;51.446;5.404;2023-03-18T00:16:13;100460.06;;;19.56;39.20
13050;BME280;6591;51.446;5.404;2023-03-18T00:18:41;100463.03;;;19.53;39.28
13050;BME280;6591;51.446;5.404;2023-03-18T00:21:08;100465.28;;;19.48;39.31
13050;BME280;6591;51.446;5.404;2023-03-18T00:23:37;100467.28;;;19.45;39.59
13050;BME280;6591;51.446;5.404;2023-03-18T00:26:04;100477.41;;;19.42;39.45
13050;BME280;6591;51.446;5.404;2023-03-18T00:28:32;100481.38;;;19.38;39.49
13050;BME280;6591;51.446;5.404;2023-03-18T00:31:09;100473.69;;;19.33;39.95
13050;BME280;6591;51.446;5.404;2023-03-18T00:33:40;100475.66;;;19.31;39.75
13050;BME280;6591;51.446;5.404;2023-03-18T00:36:11;100472.25;;;19.29;39.76
13050;BME280;6591;51.446;5.404;2023-03-18T00:38:45;100472.38;;;19.28;39.73
13050;BME280;6591;51.446;5.404;2023-03-18T00:41:13;100481.44;;;19.27;39.67
13050;BME280;6591;51.446;5.404;2023-03-18T00:43:45;100486.13;;;19.25;40.05
13050;BME280;6591;51.446;5.404;2023-03-18T00:46:29;100498.00;;;19.22;40.23
13050;BME280;6591;51.446;5.404;2023-03-18T00:49:01;100500.00;;;19.20;40.24
13050;BME280;6591;51.446;5.404;2023-03-18T00:51:34;100493.16;;;19.16;40.55
13050;BME280;6591;51.446;5.404;2023-03-18T00:54:05;100499.38;;;19.17;40.56
13050;BME280;6591;51.446;5.404;2023-03-18T00:56:35;100499.38;;;19.17;40.74
13050;BME280;6591;51.446;5.404;2023-03-18T00:59:05;100500.53;;;19.14;40.91
13050;BME280;6591;51.446;5.404;2023-03-18T01:01:33;100503.06;;;19.16;40.90
13050;BME280;6591;51.446;5.404;2023-03-18T01:04:00;100503.06;;;19.16;40.85
13050;BME280;6591;51.446;5.404;2023-03-18T01:06:35;100496.84;;;19.15;41.11
13050;BME280;6591;51.446;5.404;2023-03-18T01:09:06;100492.56;;;19.13;41.14
13050;BME280;6591;51.446;5.404;2023-03-18T01:11:35;100491.84;;;19.11;41.23
13050;BME280;6591;51.446;5.404;2023-03-18T01:14:02;100488.69;;;19.05;41.55
13050;BME280;6591;51.446;5.404;2023-03-18T01:16:30;100489.63;;;18.95;41.66
13050;BME280;6591;51.446;5.404;2023-03-18T01:18:57;100485.03;;;18.86;41.96
13050;BME280;6591;51.446;5.404;2023-03-18T01:21:24;100482.16;;;18.78;41.97
13050;BME280;6591;51.446;5.404;2023-03-18T01:23:55;100484.63;;;18.70;42.42
13050;BME280;6591;51.446;5.404;2023-03-18T01:26:24;100497.88;;;18.61;42.58
13050;BME280;6591;51.446;5.404;2023-03-18T01:28:54;100495.84;;;18.54;42.63
13050;BME280;6591;51.446;5.404;2023-03-18T01:31:22;100492.78;;;18.47;42.97
13050;BME280;6591;51.446;5.404;2023-03-18T01:33:56;100497.09;;;18.39;43.47
13050;BME280;6591;51.446;5.404;2023-03-18T01:36:23;100484.03;;;18.34;43.53
13050;BME280;6591;51.446;5.404;2023-03-18T01:39:03;100494.31;;;18.29;43.50
13050;BME280;6591;51.446;5.404;2023-03-18T01:41:33;100496.41;;;18.26;43.82
13050;BME280;6591;51.446;5.404;2023-03-18T01:44:03;100487.88;;;18.20;43.97
13050;BME280;6591;51.446;5.404;2023-03-18T01:46:36;100480.19;;;18.16;44.25
13050;BME280;6591;51.446;5.404;2023-03-18T01:49:15;100485.94;;;18.11;44.24
13050;BME280;6591;51.446;5.404;2023-03-18T01:51:53;100486.06;;;18.10;44.31
13050;BME280;6591;51.446;5.404;2023-03-18T01:54:26;100481.69;;;18.09;44.32
13050;BME280;6591;51.446;5.404;2023-03-18T01:56:58;100487.91;;;18.09;44.50
13050;BME280;6591;51.446;5.404;2023-03-18T01:59:28;100479.97;;;18.08;44.71
13050;BME280;6591;51.446;5.404;2023-03-18T02:02:05;100485.44;;;18.06;44.61
13050;BME280;6591;51.446;5.404;2023-03-18T02:04:40;100493.41;;;18.08;45.01
13050;BME280;6591;51.446;5.404;2023-03-18T02:07:21;100489.16;;;18.05;45.05
13050;BME280;6591;51.446;5.404;2023-03-18T02:09:50;100493.50;;;18.06;44.99
13050;BME280;6591;51.446;5.404;2023-03-18T02:12:28;100490.22;;;18.03;45.22
13050;BME280;6591;51.446;5.404;2023-03-18T02:15:01;100492.94;;;18.03;45.32
13050;BME280;6591;51.446;5.404;2023-03-18T02:17:35;100495.59;;;18.03;45.50
13050;BME280;6591;51.446;5.404;2023-03-18T02:21:09;100488.31;;;17.94;45.54
13050;BME280;6591;51.446;5.404;2023-03-18T02:27:24;100507.50;;;17.89;45.47
13050;BME280;6591;51.446;5.404;2023-03-18T02:30:00;100504.53;;;17.92;45.73
13050;BME280;6591;51.446;5.404;2023-03-18T02:32:34;100509.81;;;17.94;45.88
13050;BME280;6591;51.446;5.404;2023-03-18T02:35:05;100511.63;;;17.93;45.99
13050;BME280;6591;51.446;5.404;2023-03-18T02:37:37;100504.44;;;17.94;46.37
13050;BME280;6591;51.446;5.404;2023-03-18T02:40:33;100503.09;;;17.88;46.80
13050;BME280;6591;51.446;5.404;2023-03-18T02:43:29;100503.94;;;17.89;46.88
13050;BME280;6591;51.446;5.404;2023-03-18T02:46:21;100506.25;;;17.93;46.67
13050;BME280;6591;51.446;5.404;2023-03-18T02:48:53;100513.56;;;17.91;46.91
13050;BME280;6591;51.446;5.404;2023-03-18T02:51:22;100514.44;;;17.92;46.88
13050;BME280;6591;51.446;5.404;2023-03-18T02:53:54;100516.25;;;17.91;47.05
13050;BME280;6591;51.446;5.404;2023-03-18T02:56:23;100526.91;;;17.93;47.33
13050;BME280;6591;51.446;5.404;2023-03-18T02:58:50;100525.91;;;17.94;47.41
13050;BME280;6591;51.446;5.404;2023-03-18T03:01:19;100529.47;;;17.94;47.39
13050;BME280;6591;51.446;5.404;2023-03-18T03:03:47;100529.47;;;17.94;47.78
13050;BME280;6591;51.446;5.404;2023-03-18T03:06:14;100535.69;;;17.95;47.67
13050;BME280;6591;51.446;5.404;2023-03-18T03:08:43;100535.69;;;17.95;47.80
13050;BME280;6591;51.446;5.404;2023-03-18T03:11:10;100542.75;;;17.96;47.62
13050;BME280;6591;51.446;5.404;2023-03-18T03:13:40;100538.22;;;17.96;47.89
13050;BME280;6591;51.446;5.404;2023-03-18T03:16:11;100537.38;;;17.96;47.68
13050;BME280;6591;51.446;5.404;2023-03-18T03:18:39;100535.69;;;17.95;47.81
13050;BME280;6591;51.446;5.404;2023-03-18T03:21:06;100539.22;;;17.95;47.79
13050;BME280;6591;51.446;5.404;2023-03-18T03:23:36;100541.06;;;17.95;48.04
13050;BME280;6591;51.446;5.404;2023-03-18T03:26:04;100538.50;;;17.93;47.92
13050;BME280;6591;51.446;5.404;2023-03-18T03:28:32;100540.31;;;17.93;47.81
13050;BME280;6591;51.446;5.404;2023-03-18T03:30:59;100536.66;;;17.94;47.67
13050;BME280;6591;51.446;5.404;2023-03-18T03:33:27;100539.47;;;17.92;47.79
13050;BME280;6591;51.446;5.404;2023-03-18T03:35:55;100548.50;;;17.91;47.88
13050;BME280;6591;51.446;5.404;2023-03-18T03:38:24;100542.16;;;17.92;47.92
13050;BME280;6591;51.446;5.404;2023-03-18T03:40:53;100543.97;;;17.92;48.37
13050;BME280;6591;51.446;5.404;2023-03-18T03:43:21;100541.31;;;17.92;48.00
13050;BME280;6591;51.446;5.404;2023-03-18T03:45:48;100551.06;;;17.93;48.13
13050;BME280;6591;51.446;5.404;2023-03-18T03:48:15;100554.72;;;17.92;47.97
13050;BME280;6591;51.446;5.404;2023-03-18T03:50:42;100552.91;;;17.92;48.25
13050;BME280;6591;51.446;5.404;2023-03-18T03:53:09;100549.34;;;17.92;48.50
13050;BME280;6591;51.446;5.404;2023-03-18T03:55:36;100558.28;;;17.92;48.38
13050;BME280;6591;51.446;5.404;2023-03-18T03:58:04;100554.72;;;17.92;48.40
13050;BME280;6591;51.446;5.404;2023-03-18T04:00:32;100557.41;;;17.92;48.71
13050;BME280;6591;51.446;5.404;2023-03-18T04:02:59;100556.44;;;17.93;48.76
13050;BME280;6591;51.446;5.404;2023-03-18T04:05:27;100564.50;;;17.93;49.01
13050;BME280;6591;51.446;5.404;2023-03-18T04:07:57;100564.50;;;17.93;49.18
13050;BME280;6591;51.446;5.404;2023-03-18T04:10:34;100569.88;;;17.93;49.55
13050;BME280;6591;51.446;5.404;2023-03-18T04:13:04;100569.88;;;17.93;49.53
13050;BME280;6591;51.446;5.404;2023-03-18T04:15:32;100565.47;;;17.92;49.50
13050;BME280;6591;51.446;5.404;2023-03-18T04:18:05;100561.94;;;17.91;49.80
13050;BME280;6591;51.446;5.404;2023-03-18T04:20:36;100559.25;;;17.91;49.84
13050;BME280;6591;51.446;5.404;2023-03-18T04:23:13;100558.38;;;17.91;49.81
13050;BME280;6591;51.446;5.404;2023-03-18T04:25:40;100558.38;;;17.91;49.88
13050;BME280;6591;51.446;5.404;2023-03-18T04:28:07;100565.47;;;17.92;50.16
13050;BME280;6591;51.446;5.404;2023-03-18T04:30:36;100562.91;;;17.90;50.19
13050;BME280;6591;51.446;5.404;2023-03-18T04:33:07;100567.31;;;17.91;50.22
13050;BME280;6591;51.446;5.404;2023-03-18T04:35:39;100576.34;;;17.90;50.24
13050;BME280;6591;51.446;5.404;2023-03-18T04:38:09;100575.50;;;17.90;50.25
13050;BME280;6591;51.446;5.404;2023-03-18T04:40:37;100579.88;;;17.91;50.44
13050;BME280;6591;51.446;5.404;2023-03-18T04:43:04;100583.69;;;17.88;50.43
13050;BME280;6591;51.446;5.404;2023-03-18T04:45:32;100584.53;;;17.89;50.44
13050;BME280;6591;51.446;5.404;2023-03-18T04:48:00;100589.06;;;17.88;50.92
13050;BME280;6591;51.446;5.404;2023-03-18T04:50:31;100583.69;;;17.88;50.55
13050;BME280;6591;51.446;5.404;2023-03-18T04:53:00;100586.38;;;17.88;50.91
13050;BME280;6591;51.446;5.404;2023-03-18T04:55:29;100585.50;;;17.88;50.79
13050;BME280;6591;51.446;5.404;2023-03-18T04:57:59;100597.22;;;17.87;50.88
13050;BME280;6591;51.446;5.404;2023-03-18T05:00:28;100604.31;;;17.88;50.62
13050;BME280;6591;51.446;5.404;2023-03-18T05:03:11;100596.38;;;17.86;50.49
13050;BME280;6591;51.446;5.404;2023-03-18T05:05:39;100596.38;;;17.86;50.55
13050;BME280;6591;51.446;5.404;2023-03-18T05:08:10;100601.88;;;17.85;50.61
13050;BME280;6591;51.446;5.404;2023-03-18T05:10:38;100609.09;;;17.84;50.84
13050;BME280;6591;51.446;5.404;2023-03-18T05:13:07;100602.84;;;17.84;50.77
13050;BME280;6591;51.446;5.404;2023-03-18T05:15:36;100605.53;;;17.84;50.91
13050;BME280;6591;51.446;5.404;2023-03-18T05:18:03;100592.13;;;17.84;50.87
13050;BME280;6591;51.446;5.404;2023-03-18T05:20:31;100589.44;;;17.84;50.73
13050;BME280;6591;51.446;5.404;2023-03-18T05:22:58;100583.09;;;17.85;50.66
13050;BME280;6591;51.446;5.404;2023-03-18T05:25:37;100593.09;;;17.83;50.75
13050;BME280;6591;51.446;5.404;2023-03-18T05:28:04;100595.03;;;17.81;50.55
13050;BME280;6591;51.446;5.404;2023-03-18T05:30:41;100597.97;;;17.77;50.70
13050;BME280;6591;51.446;5.404;2023-03-18T05:33:13;100586.47;;;17.75;50.43
13050;BME280;6591;51.446;5.404;2023-03-18T05:35:50;100593.06;;;17.71;50.24
13050;BME280;6591;51.446;5.404;2023-03-18T05:38:21;100595.28;;;17.66;50.53
13050;BME280;6591;51.446;5.404;2023-03-18T05:40:49;100592.94;;;17.62;50.09
13050;BME280;6591;51.446;5.404;2023-03-18T05:43:24;100596.19;;;17.54;50.32
13050;BME280;6591;51.446;5.404;2023-03-18T05:45:56;100602.03;;;17.48;50.29
13050;BME280;6591;51.446;5.404;2023-03-18T05:48:43;100607.06;;;17.42;50.52
13050;BME280;6591;51.446;5.404;2023-03-18T05:51:11;100614.47;;;17.38;50.23
13050;BME280;6591;51.446;5.404;2023-03-18T05:53:38;100623.84;;;17.32;50.45
13050;BME280;6591;51.446;5.404;2023-03-18T05:56:28;100627.88;;;17.27;50.45
13050;BME280;6591;51.446;5.404;2023-03-18T05:58:59;100630.78;;;17.24;50.46
13050;BME280;6591;51.446;5.404;2023-03-18T06:01:39;100632.72;;;17.22;50.26
13050;BME280;6591;51.446;5.404;2023-03-18T06:04:07;100627.69;;;17.17;50.23
13050;BME280;6591;51.446;5.404;2023-03-18T06:06:36;100640.50;;;17.14;50.29
13050;BME280;6591;51.446;5.404;2023-03-18T06:09:08;100630.97;;;17.10;50.47
13050;BME280;6591;51.446;5.404;2023-03-18T06:11:37;100625.22;;;17.03;50.23
13050;BME280;6591;51.446;5.404;2023-03-18T06:14:07;100612.16;;;16.99;50.43
13050;BME280;6591;51.446;5.404;2023-03-18T06:16:35;100622.28;;;16.95;50.22
13050;BME280;6591;51.446;5.404;2023-03-18T06:19:02;100613.59;;;16.91;50.42
13050;BME280;6591;51.446;5.404;2023-03-18T06:21:30;100625.63;;;16.86;50.32
13050;BME280;6591;51.446;5.404;2023-03-18T06:23:59;100619.66;;;16.82;50.03
13050;BME280;6591;51.446;5.404;2023-03-18T06:26:30;100627.19;;;16.77;49.90
13050;BME280;6591;51.446;5.404;2023-03-18T06:28:57;100622.06;;;16.74;50.47
13050;BME280;6591;51.446;5.404;2023-03-18T06:31:25;100626.78;;;16.71;50.28
13050;BME280;6591;51.446;5.404;2023-03-18T06:33:53;100637.75;;;16.68;50.43
13050;BME280;6591;51.446;5.404;2023-03-18T06:36:21;100644.16;;;16.65;50.59
13050;BME280;6591;51.446;5.404;2023-03-18T06:38:51;100654.16;;;16.63;50.72
13050;BME280;6591;51.446;5.404;2023-03-18T06:41:20;100658.56;;;16.64;50.38
13050;BME280;6591;51.446;5.404;2023-03-18T06:43:59;100655.88;;;16.64;50.58
13050;BME280;6591;51.446;5.404;2023-03-18T06:46:28;100646.84;;;16.65;50.61
13050;BME280;6591;51.446;5.404;2023-03-18T06:48:57;100645.88;;;16.66;50.97
13050;BME280;6591;51.446;5.404;2023-03-18T06:51:28;100647.59;;;16.67;50.45
13050;BME280;6591;51.446;5.404;2023-03-18T06:53:57;100649.31;;;16.68;50.82
13050;BME280;6591;51.446;5.404;2023-03-18T06:56:25;100651.75;;;16.71;50.98
13050;BME280;6591;51.446;5.404;2023-03-18T06:59:08;100666.03;;;16.72;51.20
13050;BME280;6591;51.446;5.404;2023-03-18T07:01:36;100659.59;;;16.74;50.94
13050;BME280;6591;51.446;5.404;2023-03-18T07:04:04;100661.19;;;16.77;51.33
13050;BME280;6591;51.446;5.404;2023-03-18T07:06:33;100666.44;;;16.78;51.20
13050;BME280;6591;51.446;5.404;2023-03-18T07:09:00;100660.97;;;16.80;50.99
13050;BME280;6591;51.446;5.404;2023-03-18T07:11:28;100668.78;;;16.83;51.45
13050;BME280;6591;51.446;5.404;2023-03-18T07:13:57;100671.22;;;16.86;51.62
13050;BME280;6591;51.446;5.404;2023-03-18T07:16:29;100664.53;;;16.91;51.58
13050;BME280;6591;51.446;5.404;2023-03-18T07:18:57;100676.53;;;16.99;51.39
13050;BME280;6591;51.446;5.404;2023-03-18T07:21:25;100674.97;;;17.07;51.65
13050;BME280;6591;51.446;5.404;2023-03-18T07:23:52;100676.84;;;17.18;51.80
13050;BME280;6591;51.446;5.404;2023-03-18T07:26:24;100678.72;;;17.28;51.48
13050;BME280;6591;51.446;5.404;2023-03-18T07:28:51;100681.47;;;17.40;51.79
13050;BME280;6591;51.446;5.404;2023-03-18T07:31:18;100696.53;;;17.53;51.56
13050;BME280;6591;51.446;5.404;2023-03-18T07:33:45;100684.16;;;17.63;51.85
13050;BME280;6591;51.446;5.404;2023-03-18T07:36:12;100684.03;;;17.76;51.66
13050;BME280;6591;51.446;5.404;2023-03-18T07:38:40;100684.06;;;17.87;51.58
13050;BME280;6591;51.446;5.404;2023-03-18T07:41:07;100690.31;;;17.99;51.40
13050;BME280;6591;51.446;5.404;2023-03-18T07:43:35;100700.22;;;18.09;51.47
13050;BME280;6591;51.446;5.404;2023-03-18T07:46:03;100705.59;;;18.20;51.37
13050;BME280;6591;51.446;5.404;2023-03-18T07:48:31;100699.59;;;18.28;51.36
13050;BME280;6591;51.446;5.404;2023-03-18T07:51:01;100705.06;;;18.38;51.17
13050;BME280;6591;51.446;5.404;2023-03-18T07:53:28;100709.84;;;18.45;51.58
13050;BME280;6591;51.446;5.404;2023-03-18T07:55:55;100713.78;;;18.52;51.22
13050;BME280;6591;51.446;5.404;2023-03-18T07:58:22;100705.84;;;18.62;51.16
13050;BME280;6591;51.446;5.404;2023-03-18T08:00:51;100701.53;;;18.71;51.04
13050;BME280;6591;51.446;5.404;2023-03-18T08:03:18;100702.25;;;18.84;51.05
13050;BME280;6591;51.446;5.404;2023-03-18T08:05:45;100691.44;;;18.95;51.09
13050;BME280;6591;51.446;5.404;2023-03-18T08:08:12;100682.94;;;19.11;50.97
13050;BME280;6591;51.446;5.404;2023-03-18T08:10:39;100694.31;;;19.25;50.82
13050;BME280;6591;51.446;5.404;2023-03-18T08:13:06;100673.31;;;19.40;50.63
13050;BME280;6591;51.446;5.404;2023-03-18T08:15:33;100674.59;;;19.57;50.66
13050;BME280;6591;51.446;5.404;2023-03-18T08:18:01;100673.28;;;19.72;50.07
13050;BME280;6591;51.446;5.404;2023-03-18T08:20:28;100683.69;;;19.86;50.19
13050;BME280;6591;51.446;5.404;2023-03-18T08:22:55;100682.38;;;20.01;50.08
13050;BME280;6591;51.446;5.404;2023-03-18T08:25:23;100683.47;;;20.19;49.87
13050;BME280;6591;51.446;5.404;2023-03-18T08:27:52;100691.22;;;20.34;49.82
13050;BME280;6591;51.446;5.404;2023-03-18T08:30:19;100688.28;;;20.46;49.20
13050;BME280;6591;51.446;5.404;2023-03-18T08:32:46;100691.72;;;20.58;49.05
13050;BME280;6591;51.446;5.404;2023-03-18T08:35:14;100699.84;;;20.67;48.96
13050;BME280;6591;51.446;5.404;2023-03-18T08:37:41;100699.16;;;20.75;49.08
13050;BME280;6591;51.446;5.404;2023-03-18T08:40:09;100702.16;;;20.82;49.11
13050;BME280;6591;51.446;5.404;2023-03-18T08:42:37;100702.47;;;20.88;48.86
13050;BME280;6591;51.446;5.404;2023-03-18T08:45:05;100709.56;;;20.99;49.01
13050;BME280;6591;51.446;5.404;2023-03-18T08:47:32;100706.91;;;21.08;48.79
13050;BME280;6591;51.446;5.404;2023-03-18T08:49:59;100704.25;;;21.18;48.55
13050;BME280;6591;51.446;5.404;2023-03-18T08:52:26;100701.53;;;21.28;48.48
13050;BME280;6591;51.446;5.404;2023-03-18T08:54:53;100702.25;;;21.39;48.17
13050;BME280;6591;51.446;5.404;2023-03-18T08:57:20;100699.25;;;21.52;48.28
13050;BME280;6591;51.446;5.404;2023-03-18T08:59:47;100702.53;;;21.65;48.04
13050;BME280;6591;51.446;5.404;2023-03-18T09:02:15;100693.97;;;21.79;47.99
13050;BME280;6591;51.446;5.404;2023-03-18T09:04:43;100698.03;;;21.93;48.22
13050;BME280;6591;51.446;5.404;2023-03-18T09:07:11;100702.06;;;22.08;47.83
13050;BME280;6591;51.446;5.404;2023-03-18T09:09:39;100700.72;;;22.22;47.28
13050;BME280;6591;51.446;5.404;2023-03-18T09:12:10;100704.25;;;22.32;47.34
13050;BME280;6591;51.446;5.404;2023-03-18T09:14:40;100706.03;;;22.41;47.24
13050;BME280;6591;51.446;5.404;2023-03-18T09:17:09;100716.28;;;22.47;47.12
13050;BME280;6591;51.446;5.404;2023-03-18T09:19:36;100709.28;;;22.54;46.85
13050;BME280;6591;51.446;5.404;2023-03-18T09:22:04;100710.06;;;22.64;47.30
13050;BME280;6591;51.446;5.404;2023-03-18T09:24:31;100726.16;;;22.75;47.32
13050;BME280;6591;51.446;5.404;2023-03-18T09:26:58;100725.50;;;22.91;46.87
13050;BME280;6591;51.446;5.404;2023-03-18T09:29:26;100724.66;;;23.08;46.71
13050;BME280;6591;51.446;5.404;2023-03-18T09:31:53;100717.56;;;23.25;46.64
13050;BME280;6591;51.446;5.404;2023-03-18T09:34:21;100717.72;;;23.41;46.52
13050;BME280;6591;51.446;5.404;2023-03-18T09:36:48;100711.22;;;23.52;46.36
13050;BME280;6591;51.446;5.404;2023-03-18T09:39:19;100707.75;;;23.59;45.90
13050;BME280;6591;51.446;5.404;2023-03-18T09:45:34;100714.13;;;23.76;45.93
13050;BME280;6591;51.446;5.404;2023-03-18T09:51:55;100700.31;;;24.13;45.88
13050;BME280;6591;51.446;5.404;2023-03-18T09:54:39;100699.97;;;24.34;45.49
13050;BME280;6591;51.446;5.404;2023-03-18T09:57:22;100698.88;;;24.53;45.29
13050;BME280;6591;51.446;5.404;2023-03-18T10:00:02;100706.75;;;24.72;45.07
13050;BME280;6591;51.446;5.404;2023-03-18T10:02:49;100712.78;;;24.92;44.63
13050;BME280;6591;51.446;5.404;2023-03-18T10:05:47;100711.16;;;25.07;44.51
13050;BME280;6591;51.446;5.404;2023-03-18T10:08:31;100709.31;;;25.23;44.40
13050;BME280;6591;51.446;5.404;2023-03-18T10:14:51;100706.63;;;25.48;43.81
13050;BME280;6591;51.446;5.404;2023-03-18T10:17:35;100710.41;;;25.63;43.39
13050;BME280;6591;51.446;5.404;2023-03-18T10:26:10;100719.22;;;26.05;42.77
13050;BME280;6591;51.446;5.404;2023-03-18T10:29:01;100712.03;;;26.12;41.79
13050;BME280;6591;51.446;5.404;2023-03-18T10:32:09;100714.81;;;26.04;41.88
13050;BME280;6591;51.446;5.404;2023-03-18T10:34:54;100704.25;;;26.01;42.35
13050;BME280;6591;51.446;5.404;2023-03-18T10:37:56;100700.00;;;25.99;42.50
13050;BME280;6591;51.446;5.404;2023-03-18T10:40:32;100699.81;;;26.08;42.23
13050;BME280;6591;51.446;5.404;2023-03-18T10:43:03;100702.88;;;26.22;42.50
13050;BME280;6591;51.446;5.404;2023-03-18T10:45:32;100695.16;;;26.41;42.29
13050;BME280;6591;51.446;5.404;2023-03-18T10:48:17;100697.63;;;26.59;41.17
13050;BME280;6591;51.446;5.404;2023-03-18T10:51:08;100692.84;;;26.69;41.51
13050;BME280;6591;51.446;5.404;2023-03-18T10:54:10;100704.00;;;26.82;41.69
13050;BME280;6591;51.446;5.404;2023-03-18T10:56:35;100703.97;;;26.98;41.66
13050;BME280;6591;51.446;5.404;2023-03-18T10:59:13;100713.78;;;27.08;40.75
13050;BME280;6591;51.446;5.404;2023-03-18T11:01:56;100705.56;;;27.16;41.07
13050;BME280;6591;51.446;5.404;2023-03-18T11:04:27;100712.84;;;27.23;40.84
13050;BME280;6591;51.446;5.404;2023-03-18T11:07:02;100714.91;;;27.21;40.11
13050;BME280;6591;51.446;5.404;2023-03-18T11:09:35;100704.50;;;27.17;40.21
13050;BME280;6591;51.446;5.404;2023-03-18T11:12:27;100702.88;;;27.08;40.23
13050;BME280;6591;51.446;5.404;2023-03-18T11:14:55;100708.31;;;27.08;40.94
13050;BME280;6591;51.446;5.404;2023-03-18T11:17:31;100707.72;;;26.97;40.41
13050;BME280;6591;51.446;5.404;2023-03-18T11:22:35;100718.06;;;26.63;39.41
13050;BME280;6591;51.446;5.404;2023-03-18T11:25:18;100726.69;;;26.36;39.32
13050;BME280;6591;51.446;5.404;2023-03-18T11:27:58;100722.44;;;26.09;39.26
13050;BME280;6591;51.446;5.404;2023-03-18T11:30:36;100726.38;;;25.82;39.25
13050;BME280;6591;51.446;5.404;2023-03-18T11:35:52;100733.09;;;25.21;39.89
13050;BME280;6591;51.446;5.404;2023-03-18T11:38:26;100737.44;;;24.98;39.96
13050;BME280;6591;51.446;5.404;2023-03-18T11:41:21;100737.19;;;24.75;40.17
13050;BME280;6591;51.446;5.404;2023-03-18T11:44:06;100727.75;;;24.54;40.83
13050;BME280;6591;51.446;5.404;2023-03-18T11:49:25;100744.22;;;24.26;40.81
13050;BME280;6591;51.446;5.404;2023-03-18T11:55:06;100740.63;;;24.00;41.49
13050;BME280;6591;51.446;5.404;2023-03-18T12:00:36;100745.59;;;23.87;41.56
13050;BME280;6591;51.446;5.404;2023-03-18T12:03:48;100752.66;;;23.80;41.87
13050;BME280;6591;51.446;5.404;2023-03-18T12:06:29;100752.97;;;23.77;41.73
13050;BME280;6591;51.446;5.404;2023-03-18T12:09:23;100752.56;;;23.72;41.25
13050;BME280;6591;51.446;5.404;2023-03-18T12:15:14;100744.25;;;23.47;41.71
13050;BME280;6591;51.446;5.404;2023-03-18T12:20:49;100744.81;;;23.23;41.94
13050;BME280;6591;51.446;5.404;2023-03-18T12:24:21;100742.47;;;23.11;42.21
13050;BME280;6591;51.446;5.404;2023-03-18T12:29:58;100742.09;;;23.06;42.35
13050;BME280;6591;51.446;5.404;2023-03-18T12:32:48;100746.66;;;23.05;42.34
13050;BME280;6591;51.446;5.404;2023-03-18T12:35:56;100736.34;;;23.09;42.44
13050;BME280;6591;51.446;5.404;2023-03-18T12:47:05;100736.00;;;23.39;42.30
13050;BME280;6591;51.446;5.404;2023-03-18T12:49:49;100736.63;;;23.51;42.35
13050;BME280;6591;51.446;5.404;2023-03-18T12:52:27;100737.59;;;23.59;42.34
13050;BME280;6591;51.446;5.404;2023-03-18T12:55:18;100733.53;;;23.63;41.82
13050;BME280;6591;51.446;5.404;2023-03-18T12:58:12;100737.34;;;23.71;42.22
13050;BME280;6591;51.446;5.404;2023-03-18T13:01:15;100728.41;;;23.60;42.43
13050;BME280;6591;51.446;5.404;2023-03-18T13:03:56;100733.44;;;23.55;42.17
13050;BME280;6591;51.446;5.404;2023-03-18T13:06:54;100729.41;;;23.42;42.65
13050;BME280;6591;51.446;5.404;2023-03-18T13:09:43;100721.81;;;23.28;42.92
13050;BME280;6591;51.446;5.404;2023-03-18T13:12:32;100724.75;;;23.16;42.67
13050;BME280;6591;51.446;5.404;2023-03-18T13:15:25;100712.81;;;23.09;43.14
13050;BME280;6591;51.446;5.404;2023-03-18T13:18:18;100714.00;;;23.07;43.45
13050;BME280;6591;51.446;5.404;2023-03-18T13:20:48;100721.41;;;23.05;43.33
13050;BME280;6591;51.446;5.404;2023-03-18T13:39:05;100712.88;;;23.00;44.05
13050;BME280;6591;51.446;5.404;2023-03-18T13:42:03;100714.59;;;23.01;43.92
13050;BME280;6591;51.446;5.404;2023-03-18T13:48:06;100721.94;;;23.08;43.84
13050;BME280;6591;51.446;5.404;2023-03-18T13:50:38;100721.91;;;23.18;43.86
13050;BME280;6591;51.446;5.404;2023-03-18T13:53:27;100713.84;;;23.26;44.22
13050;BME280;6591;51.446;5.404;2023-03-18T13:58:43;100714.47;;;23.55;43.45
13050;BME280;6591;51.446;5.404;2023-03-18T14:01:35;100711.53;;;23.67;43.82
13050;BME280;6591;51.446;5.404;2023-03-18T14:04:43;100703.13;;;23.78;43.30
13050;BME280;6591;51.446;5.404;2023-03-18T14:07:21;100712.41;;;23.93;43.13
13050;BME280;6591;51.446;5.404;2023-03-18T14:12:46;100694.59;;;24.16;42.82
13050;BME280;6591;51.446;5.404;2023-03-18T14:17:52;100695.00;;;24.21;42.54
13050;BME280;6591;51.446;5.404;2023-03-18T14:20:44;100688.56;;;24.22;42.21
13050;BME280;6591;51.446;5.404;2023-03-18T14:23:37;100684.50;;;24.26;42.06
13050;BME280;6591;51.446;5.404;2023-03-18T14:26:22;100685.19;;;24.28;42.40
13050;BME280;6591;51.446;5.404;2023-03-18T14:37:03;100673.25;;;24.89;42.79
13050;BME280;6591;51.446;5.404;2023-03-18T14:39:43;100660.69;;;25.12;42.67
13050;BME280;6591;51.446;5.404;2023-03-18T14:42:42;100660.03;;;25.35;42.12
13050;BME280;6591;51.446;5.404;2023-03-18T14:45:33;100664.84;;;25.57;42.15
13050;BME280;6591;51.446;5.404;2023-03-18T14:51:19;100659.34;;;26.05;42.01
13050;BME280;6591;51.446;5.404;2023-03-18T14:53:58;100649.25;;;26.30;41.85
13050;BME280;6591;51.446;5.404;2023-03-18T14:56:41;100651.53;;;26.58;41.58
13050;BME280;6591;51.446;5.404;2023-03-18T14:59:14;100650.53;;;26.89;41.60
13050;BME280;6591;51.446;5.404;2023-03-18T15:01:46;100654.78;;;27.15;40.87
13050;BME280;6591;51.446;5.404;2023-03-18T15:04:22;100647.13;;;27.33;39.87
13050;BME280;6591;51.446;5.404;2023-03-18T15:06:52;100644.16;;;27.42;39.13